Impacts TAF Board INFO
FOR SITUATIONAL AWARENESS. NOT TO BE USED FOR FLIGHT PLANNING PURPOSES.
IDs:

KSAN - San Diego Intl Arpt, CA, US

Issued at 2049 UTC 12 Dec 2017
Updated at 2140 UTC 12 Dec 2017
Potential Impact None Slight Moderate High
Time<<13/22Z 13/23Z 14/00Z 14/01Z 14/02Z 14/03Z 14/04Z 14/05Z 14/06Z 14/07Z 14/08Z 14/09Z 14/10Z
Type PRVL PRVL
VIS >6 >6
CIG -- --
Cover FEW FEW
FltCat VFR VFR
WX -- --
WDir 300 300
WSpd 8 8
WGst -- --

Raw TAF
KSAN 122049Z 1221/1324 31009KT P6SM SKC
  FM130000 VRB03KT P6SM FEW250
  FM132000 30008KT P6SM FEW250


METAR Board
Radar Display
Forecast Discussion

FOR SITUATIONAL AWARENESS. NOT TO BE USED FOR FLIGHT PLANNING PURPOSES.